Bookmark and Share
Track history (hours):
 

Jamie Marie

More information available from US FCC via Universal Licensing System and Coast Guard Vessel Documentation Center.

Last reported at 2014-Apr-19 20:30 UTC. Time now 2014-Apr-21 10:22 UTC.
Position N 46°55' W 124°08'.

Length 30 m.

Type: Fishing. MMSI: 366425240.

NotesDate/timePositionNaut miles runAvg speedWind from/ knotsBaromVisibWave heightAir tempDewpointWater temp
2014-Apr-19 20:30N 46°55' W 124°08'7 7.3
2014-Apr-19 19:33N 46°57' W 124°18'7 6.5
2014-Apr-19 18:33N 47°01' W 124°26'7 7.0
2014-Apr-19 17:33N 47°05' W 124°34'4 0.9
2014-Apr-19 13:33N 47°05' W 124°39'4 4.1
2014-Apr-19 12:34N 47°03' W 124°34'2 2.0
2014-Apr-19 11:33N 47°04' W 124°36'2 1.8
2014-Apr-19 10:33N 47°05' W 124°38'2 1.8
2014-Apr-19 09:33N 47°06' W 124°41'2 1.7
2014-Apr-19 08:33N 47°07' W 124°43'2 1.7
2014-Apr-19 07:33N 47°07' W 124°45'2 2.1
2014-Apr-19 06:33N 47°08' W 124°48'3 2.8
2014-Apr-19 05:33N 47°09' W 124°52'1 0.9
2014-Apr-19 04:32N 47°09' W 124°51'2 2.3
2014-Apr-19 03:33N 47°08' W 124°48'2 1.8
2014-Apr-19 02:32N 47°10' W 124°47'1 0.8
2014-Apr-19 01:20N 47°09' W 124°47'1 1.7
2014-Apr-19 00:33N 47°08' W 124°47'1 0.9
2014-Apr-18 23:23N 47°07' W 124°45'1 0.3
2014-Apr-18 18:30N 47°08' W 124°44'3 0.5
2014-Apr-18 13:33N 47°05' W 124°44'2 2.3
2014-Apr-18 12:26N 47°04' W 124°41'2 2.5
2014-Apr-18 11:33N 47°05' W 124°44'3 0.6
2014-Apr-18 07:26N 47°03' W 124°47'2 2.1
2014-Apr-18 06:31N 47°02' W 124°44'2 2.1
2014-Apr-18 05:32N 47°01' W 124°42'2 2.1
2014-Apr-18 04:33N 47°03' W 124°43'2 0.8
2014-Apr-18 02:32N 47°04' W 124°45'2 1.7
2014-Apr-18 01:33N 47°03' W 124°43'2 1.7
2014-Apr-18 00:33N 47°02' W 124°41'2 2.0
2014-Apr-17 23:33N 47°00' W 124°40'1 1.2
2014-Apr-17 22:33N 47°01' W 124°41'1 1.1
2014-Apr-17 21:33N 47°02' W 124°40'3 2.5
2014-Apr-17 20:33N 47°04' W 124°43'5 2.3
2014-Apr-17 18:32N 47°08' W 124°44'2 0.9
2014-Apr-17 16:33N 47°09' W 124°41'2 1.8
2014-Apr-17 15:32N 47°10' W 124°43'2 0.9
2014-Apr-17 13:17N 47°08' W 124°43'5 5.9
2014-Apr-17 12:27N 47°06' W 124°37'6 6.4
2014-Apr-17 11:33N 47°02' W 124°30'6 6.4
2014-Apr-17 10:33N 46°59' W 124°22'  

Dump ship's entire track history

sailing weather and tide predictions

Jamie Marie — WDE7178 — position and weather